AFR41DU LFMN-LFPG
Flight info
| Callsign | AFR41DU |
|---|---|
| Flight time | 1h 10m |
| Altitude | 32000 |
| Route | OKTET DCT LOGNI DCT MOKIP DCT ARFOZ DCT TINIL |
| Aircraft | A320/M-SDE3FGHIRWY/LB1 |
Departure
| Time | 2026-05-04 12:09 |
|---|---|
| Airport | Nice-Côte d'Azur Airport (LFMN) |
Arrival
| Time | 2026-05-04 13:19 |
|---|---|
| Airport | Charles de Gaulle International Airport (LFPG) |
| Time | Latitude | Longitude | Altitude | Speed | Heading |
|---|---|---|---|---|---|
| 2026-05-04 11:55 | 43.66047 | 7.20706 | 26 ft | 0 kts | 291° |
| 2026-05-04 12:02 | 43.66061 | 7.20795 | 22 ft | 0 kts | 154° |
| 2026-05-04 12:03 | 43.66052 | 7.20801 | 23 ft | 6 kts | 155° |
| 2026-05-04 12:04 | 43.65990 | 7.20825 | 23 ft | 12 kts | 167° |
| 2026-05-04 12:04 | 43.65893 | 7.20849 | 24 ft | 15 kts | 171° |
| 2026-05-04 12:04 | 43.65792 | 7.20869 | 22 ft | 14 kts | 172° |
| 2026-05-04 12:04 | 43.65695 | 7.20889 | 22 ft | 13 kts | 171° |
| 2026-05-04 12:05 | 43.65606 | 7.20910 | 22 ft | 14 kts | 169° |
| 2026-05-04 12:05 | 43.65518 | 7.20931 | 22 ft | 12 kts | 171° |
| 2026-05-04 12:05 | 43.65463 | 7.20944 | 22 ft | 11 kts | 171° |
| 2026-05-04 12:05 | 43.65354 | 7.20952 | 22 ft | 13 kts | 196° |
| 2026-05-04 12:06 | 43.65291 | 7.20881 | 22 ft | 11 kts | 229° |
| 2026-05-04 12:06 | 43.65239 | 7.20807 | 22 ft | 10 kts | 225° |
| 2026-05-04 12:06 | 43.65167 | 7.20705 | 22 ft | 24 kts | 225° |
| 2026-05-04 12:06 | 43.65056 | 7.20552 | 22 ft | 22 kts | 225° |
| 2026-05-04 12:07 | 43.64986 | 7.20457 | 22 ft | 21 kts | 224° |
| 2026-05-04 12:07 | 43.64889 | 7.20323 | 22 ft | 18 kts | 225° |
| 2026-05-04 12:07 | 43.64809 | 7.20270 | 22 ft | 11 kts | 162° |
| 2026-05-04 12:07 | 43.64762 | 7.20344 | 22 ft | 11 kts | 103° |
| 2026-05-04 12:08 | 43.64805 | 7.20429 | 22 ft | 12 kts | 45° |
| 2026-05-04 12:08 | 43.64958 | 7.20646 | 22 ft | 70 kts | 46° |
| 2026-05-04 12:08 | 43.65499 | 7.21401 | 33 ft | 146 kts | 45° |
| 2026-05-04 12:08 | 43.66284 | 7.22473 | 564 ft | 165 kts | 51° |
| 2026-05-04 12:09 | 43.66773 | 7.23912 | 1409 ft | 172 kts | 86° |
| 2026-05-04 12:09 | 43.66562 | 7.25546 | 2082 ft | 184 kts | 116° |
| 2026-05-04 12:09 | 43.65725 | 7.26932 | 2646 ft | 193 kts | 134° |
| 2026-05-04 12:09 | 43.64727 | 7.28348 | 3004 ft | 215 kts | 131° |
| 2026-05-04 12:10 | 43.63706 | 7.29897 | 3702 ft | 220 kts | 122° |
| 2026-05-04 12:10 | 43.63218 | 7.31895 | 4471 ft | 220 kts | 89° |
| 2026-05-04 12:10 | 43.63549 | 7.33933 | 5252 ft | 223 kts | 72° |
| 2026-05-04 12:10 | 43.64079 | 7.35967 | 6023 ft | 227 kts | 72° |
| 2026-05-04 12:11 | 43.64624 | 7.38040 | 6781 ft | 232 kts | 73° |
| 2026-05-04 12:11 | 43.65178 | 7.40149 | 7511 ft | 235 kts | 73° |
| 2026-05-04 12:11 | 43.65739 | 7.42299 | 8183 ft | 241 kts | 73° |
| 2026-05-04 12:11 | 43.66312 | 7.44503 | 8893 ft | 246 kts | 73° |
| 2026-05-04 12:12 | 43.67172 | 7.46578 | 9583 ft | 256 kts | 48° |
| 2026-05-04 12:12 | 43.68679 | 7.47939 | 10299 ft | 266 kts | 17° |
| 2026-05-04 12:12 | 43.70519 | 7.48141 | 10997 ft | 269 kts | 346° |
| 2026-05-04 12:12 | 43.72192 | 7.47061 | 11641 ft | 267 kts | 315° |
| 2026-05-04 12:13 | 43.73505 | 7.45303 | 12423 ft | 267 kts | 311° |
| 2026-05-04 12:14 | 43.83023 | 7.32263 | 17174 ft | 284 kts | 311° |
| 2026-05-04 12:15 | 43.84437 | 7.30326 | 17811 ft | 287 kts | 310° |
| 2026-05-04 12:15 | 43.85860 | 7.28373 | 18418 ft | 290 kts | 310° |
| 2026-05-04 12:15 | 43.87301 | 7.26395 | 18953 ft | 292 kts | 311° |
| 2026-05-04 12:15 | 43.88751 | 7.24408 | 19502 ft | 294 kts | 311° |
| 2026-05-04 12:16 | 43.90208 | 7.22410 | 20055 ft | 295 kts | 311° |
| 2026-05-04 12:16 | 43.91673 | 7.20401 | 20604 ft | 297 kts | 311° |
| 2026-05-04 12:16 | 43.93151 | 7.18372 | 21158 ft | 299 kts | 311° |
| 2026-05-04 12:16 | 43.94618 | 7.16351 | 21711 ft | 302 kts | 310° |
| 2026-05-04 12:17 | 43.96115 | 7.14285 | 22218 ft | 305 kts | 311° |
| 2026-05-04 12:17 | 43.97625 | 7.12203 | 22742 ft | 307 kts | 311° |
| 2026-05-04 12:17 | 43.99153 | 7.10099 | 23259 ft | 310 kts | 311° |
| 2026-05-04 12:17 | 44.00685 | 7.07985 | 23761 ft | 312 kts | 311° |
| 2026-05-04 12:18 | 44.02235 | 7.05846 | 24124 ft | 315 kts | 310° |
| 2026-05-04 12:18 | 44.03797 | 7.03687 | 24534 ft | 317 kts | 310° |
| 2026-05-04 12:18 | 44.05353 | 7.01534 | 24937 ft | 319 kts | 310° |
| 2026-05-04 12:18 | 44.06941 | 6.99337 | 25370 ft | 320 kts | 310° |
| 2026-05-04 12:19 | 44.08524 | 6.97137 | 25787 ft | 322 kts | 310° |
| 2026-05-04 12:19 | 44.10116 | 6.94918 | 26221 ft | 324 kts | 310° |
| 2026-05-04 12:19 | 44.11712 | 6.92692 | 26643 ft | 326 kts | 310° |
| 2026-05-04 12:19 | 44.13330 | 6.90459 | 27070 ft | 329 kts | 311° |
| 2026-05-04 12:20 | 44.15090 | 6.88391 | 27469 ft | 334 kts | 318° |
| 2026-05-04 12:20 | 44.17002 | 6.86568 | 27861 ft | 339 kts | 321° |
| 2026-05-04 12:20 | 44.18973 | 6.84736 | 28306 ft | 341 kts | 320° |
| 2026-05-04 12:20 | 44.20950 | 6.82890 | 28683 ft | 344 kts | 320° |
| 2026-05-04 12:21 | 44.22949 | 6.81017 | 29037 ft | 348 kts | 320° |
| 2026-05-04 12:21 | 44.24968 | 6.79121 | 29407 ft | 351 kts | 320° |
| 2026-05-04 12:21 | 44.26998 | 6.77209 | 29794 ft | 353 kts | 320° |
| 2026-05-04 12:21 | 44.29050 | 6.75278 | 30172 ft | 356 kts | 320° |
| 2026-05-04 12:22 | 44.31107 | 6.73345 | 30498 ft | 357 kts | 320° |
| 2026-05-04 12:22 | 44.33177 | 6.71403 | 30830 ft | 359 kts | 320° |
| 2026-05-04 12:22 | 44.35259 | 6.69449 | 31148 ft | 362 kts | 320° |
| 2026-05-04 12:22 | 44.37551 | 6.67879 | 31427 ft | 373 kts | 335° |
| 2026-05-04 12:23 | 44.39994 | 6.66721 | 31732 ft | 376 kts | 335° |
| 2026-05-04 12:23 | 44.42485 | 6.65560 | 32039 ft | 379 kts | 336° |
| 2026-05-04 12:23 | 44.45023 | 6.64380 | 32122 ft | 390 kts | 336° |
| 2026-05-04 12:23 | 44.47638 | 6.63161 | 32131 ft | 402 kts | 336° |
| 2026-05-04 12:24 | 44.50333 | 6.61907 | 32136 ft | 414 kts | 336° |
| 2026-05-04 12:24 | 44.53114 | 6.60612 | 32134 ft | 427 kts | 336° |
| 2026-05-04 12:24 | 44.58887 | 6.57930 | 32140 ft | 447 kts | 336° |
| 2026-05-04 12:25 | 44.64907 | 6.55131 | 32140 ft | 463 kts | 336° |
| 2026-05-04 12:25 | 44.71114 | 6.52234 | 32140 ft | 474 kts | 337° |
| 2026-05-04 12:26 | 44.77363 | 6.49315 | 32139 ft | 477 kts | 337° |
| 2026-05-04 12:26 | 44.83661 | 6.46362 | 32162 ft | 478 kts | 337° |
| 2026-05-04 12:27 | 44.89997 | 6.43375 | 32145 ft | 481 kts | 337° |
| 2026-05-04 12:27 | 44.96348 | 6.40373 | 32142 ft | 481 kts | 337° |
| 2026-05-04 12:28 | 45.02701 | 6.37369 | 32140 ft | 481 kts | 338° |
| 2026-05-04 12:28 | 45.09016 | 6.34373 | 32127 ft | 481 kts | 338° |
| 2026-05-04 12:29 | 45.15354 | 6.31356 | 32114 ft | 481 kts | 338° |
| 2026-05-04 12:29 | 45.21703 | 6.28332 | 32094 ft | 481 kts | 338° |
| 2026-05-04 12:30 | 45.28045 | 6.25306 | 32076 ft | 481 kts | 338° |
| 2026-05-04 12:30 | 45.34384 | 6.22282 | 32065 ft | 480 kts | 338° |
| 2026-05-04 12:31 | 45.40681 | 6.19258 | 32066 ft | 481 kts | 338° |
| 2026-05-04 12:31 | 45.47039 | 6.16193 | 32049 ft | 482 kts | 338° |
| 2026-05-04 12:32 | 45.56596 | 6.11579 | 32054 ft | 484 kts | 338° |
| 2026-05-04 12:33 | 45.62978 | 6.08490 | 32062 ft | 485 kts | 338° |
| 2026-05-04 12:33 | 45.69365 | 6.05391 | 32056 ft | 485 kts | 338° |
| 2026-05-04 12:34 | 45.75760 | 6.02288 | 32054 ft | 485 kts | 338° |
| 2026-05-04 12:34 | 45.82162 | 5.99164 | 32067 ft | 486 kts | 338° |
| 2026-05-04 12:35 | 45.88573 | 5.96022 | 32063 ft | 487 kts | 338° |
| 2026-05-04 12:35 | 45.94956 | 5.92892 | 32088 ft | 487 kts | 338° |
| 2026-05-04 12:36 | 46.01387 | 5.89738 | 32058 ft | 489 kts | 338° |
| 2026-05-04 12:36 | 46.07833 | 5.86562 | 32043 ft | 490 kts | 338° |
| 2026-05-04 12:37 | 46.14287 | 5.83372 | 32044 ft | 491 kts | 338° |
| 2026-05-04 12:37 | 46.20756 | 5.80173 | 32055 ft | 492 kts | 338° |
| 2026-05-04 12:38 | 46.27191 | 5.76986 | 32052 ft | 492 kts | 338° |
| 2026-05-04 12:38 | 46.33671 | 5.73766 | 32030 ft | 492 kts | 337° |
| 2026-05-04 12:39 | 46.40135 | 5.70502 | 32016 ft | 492 kts | 337° |
| 2026-05-04 12:39 | 46.46613 | 5.67230 | 32025 ft | 493 kts | 338° |
| 2026-05-04 12:40 | 46.53109 | 5.64001 | 32043 ft | 493 kts | 338° |
| 2026-05-04 12:40 | 46.59579 | 5.60766 | 32025 ft | 494 kts | 338° |
| 2026-05-04 12:41 | 46.66085 | 5.57501 | 32015 ft | 495 kts | 338° |
| 2026-05-04 12:41 | 46.72590 | 5.54215 | 32014 ft | 495 kts | 338° |
| 2026-05-04 12:42 | 46.79104 | 5.50922 | 32008 ft | 495 kts | 338° |
| 2026-05-04 12:42 | 46.85619 | 5.47621 | 32015 ft | 495 kts | 338° |
| 2026-05-04 12:43 | 46.92114 | 5.44313 | 32014 ft | 496 kts | 337° |
| 2026-05-04 12:43 | 46.98635 | 5.40986 | 32011 ft | 496 kts | 337° |
| 2026-05-04 12:44 | 47.05158 | 5.37651 | 32015 ft | 496 kts | 337° |
| 2026-05-04 12:44 | 47.11690 | 5.34305 | 32036 ft | 497 kts | 337° |
| 2026-05-04 12:45 | 47.18230 | 5.30954 | 32015 ft | 498 kts | 337° |
| 2026-05-04 12:45 | 47.24748 | 5.27600 | 32010 ft | 499 kts | 337° |
| 2026-05-04 12:46 | 47.31314 | 5.24205 | 32012 ft | 500 kts | 337° |
| 2026-05-04 12:46 | 47.37878 | 5.20804 | 32012 ft | 500 kts | 337° |
| 2026-05-04 12:47 | 47.44449 | 5.17390 | 32009 ft | 500 kts | 337° |
| 2026-05-04 12:47 | 47.51014 | 5.13977 | 32011 ft | 500 kts | 337° |
| 2026-05-04 12:48 | 47.57460 | 5.10330 | 32004 ft | 496 kts | 329° |
| 2026-05-04 12:48 | 47.63087 | 5.04621 | 31992 ft | 487 kts | 315° |
| 2026-05-04 12:49 | 47.68250 | 4.98109 | 32002 ft | 487 kts | 315° |
| 2026-05-04 12:49 | 47.73427 | 4.91599 | 31991 ft | 488 kts | 315° |
| 2026-05-04 12:50 | 47.78612 | 4.85089 | 31977 ft | 487 kts | 315° |
| 2026-05-04 12:50 | 47.83777 | 4.78536 | 31982 ft | 487 kts | 315° |
| 2026-05-04 12:51 | 47.88881 | 4.72006 | 31971 ft | 487 kts | 314° |
| 2026-05-04 12:51 | 47.94095 | 4.65498 | 31997 ft | 488 kts | 316° |
| 2026-05-04 12:52 | 47.99654 | 4.59605 | 31993 ft | 488 kts | 317° |
| 2026-05-04 12:52 | 48.04676 | 4.52866 | 31980 ft | 484 kts | 311° |
| 2026-05-04 12:52 | 48.07098 | 4.49335 | 31539 ft | 486 kts | 311° |
| 2026-05-04 12:53 | 48.09535 | 4.45845 | 30903 ft | 486 kts | 312° |
| 2026-05-04 12:53 | 48.11177 | 4.43565 | 30494 ft | 487 kts | 313° |
| 2026-05-04 12:53 | 48.14538 | 4.39075 | 29633 ft | 490 kts | 314° |
| 2026-05-04 12:53 | 48.17116 | 4.35735 | 28935 ft | 490 kts | 315° |
| 2026-05-04 12:54 | 48.19713 | 4.32401 | 28255 ft | 491 kts | 315° |
| 2026-05-04 12:54 | 48.21465 | 4.30147 | 27804 ft | 491 kts | 315° |
| 2026-05-04 12:54 | 48.24017 | 4.26839 | 27179 ft | 492 kts | 315° |
| 2026-05-04 12:54 | 48.26512 | 4.23349 | 26536 ft | 488 kts | 308° |
| 2026-05-04 12:55 | 48.28682 | 4.19450 | 25905 ft | 487 kts | 305° |
| 2026-05-04 12:55 | 48.30830 | 4.15504 | 25293 ft | 487 kts | 305° |
| 2026-05-04 12:55 | 48.32982 | 4.11561 | 24687 ft | 488 kts | 305° |
| 2026-05-04 12:55 | 48.35139 | 4.07618 | 24096 ft | 488 kts | 306° |
| 2026-05-04 12:56 | 48.37301 | 4.03677 | 23514 ft | 489 kts | 306° |
| 2026-05-04 12:56 | 48.39429 | 3.99801 | 22842 ft | 489 kts | 306° |
| 2026-05-04 12:56 | 48.41566 | 3.95905 | 22167 ft | 477 kts | 306° |
| 2026-05-04 12:56 | 48.43655 | 3.92087 | 21505 ft | 468 kts | 306° |
| 2026-05-04 12:57 | 48.45711 | 3.88314 | 20875 ft | 465 kts | 306° |
| 2026-05-04 12:57 | 48.47759 | 3.84544 | 20427 ft | 465 kts | 306° |
| 2026-05-04 12:57 | 48.49805 | 3.80765 | 20002 ft | 465 kts | 306° |
| 2026-05-04 12:57 | 48.51846 | 3.76980 | 19574 ft | 465 kts | 306° |
| 2026-05-04 12:58 | 48.53857 | 3.73198 | 19160 ft | 454 kts | 303° |
| 2026-05-04 12:58 | 48.55558 | 3.69352 | 18763 ft | 439 kts | 300° |
| 2026-05-04 12:58 | 48.57199 | 3.65552 | 18435 ft | 426 kts | 300° |
| 2026-05-04 12:58 | 48.58790 | 3.61853 | 18111 ft | 413 kts | 300° |
| 2026-05-04 12:59 | 48.60335 | 3.58251 | 17765 ft | 403 kts | 300° |
| 2026-05-04 12:59 | 48.61840 | 3.54739 | 17420 ft | 393 kts | 300° |
| 2026-05-04 12:59 | 48.63313 | 3.51296 | 17078 ft | 387 kts | 300° |
| 2026-05-04 12:59 | 48.64771 | 3.47883 | 16732 ft | 384 kts | 300° |
| 2026-05-04 13:00 | 48.66216 | 3.44495 | 16411 ft | 383 kts | 301° |
| 2026-05-04 13:00 | 48.67658 | 3.41113 | 16077 ft | 382 kts | 301° |
| 2026-05-04 13:00 | 48.69093 | 3.37746 | 15754 ft | 380 kts | 302° |
| 2026-05-04 13:00 | 48.70521 | 3.34389 | 15424 ft | 378 kts | 302° |
| 2026-05-04 13:01 | 48.71945 | 3.31039 | 15103 ft | 377 kts | 302° |
| 2026-05-04 13:01 | 48.73358 | 3.27709 | 14786 ft | 375 kts | 302° |
| 2026-05-04 13:01 | 48.74765 | 3.24384 | 14471 ft | 374 kts | 302° |
| 2026-05-04 13:01 | 48.76164 | 3.21077 | 14157 ft | 372 kts | 302° |
| 2026-05-04 13:02 | 48.77544 | 3.17813 | 13855 ft | 371 kts | 302° |
| 2026-05-04 13:02 | 48.78937 | 3.14520 | 13503 ft | 369 kts | 302° |
| 2026-05-04 13:02 | 48.80319 | 3.11245 | 13158 ft | 368 kts | 302° |
| 2026-05-04 13:02 | 48.81692 | 3.07984 | 12822 ft | 365 kts | 302° |
| 2026-05-04 13:03 | 48.83057 | 3.04736 | 12485 ft | 366 kts | 302° |
| 2026-05-04 13:03 | 48.84529 | 3.01370 | 12150 ft | 397 kts | 307° |
| 2026-05-04 13:03 | 48.86377 | 2.98170 | 11822 ft | 405 kts | 312° |
| 2026-05-04 13:03 | 48.88259 | 2.95052 | 11487 ft | 405 kts | 312° |
| 2026-05-04 13:04 | 48.90161 | 2.91908 | 11165 ft | 402 kts | 312° |
| 2026-05-04 13:04 | 48.92053 | 2.88783 | 10839 ft | 400 kts | 312° |
| 2026-05-04 13:04 | 48.93937 | 2.85668 | 10519 ft | 399 kts | 312° |
| 2026-05-04 13:04 | 48.95833 | 2.82590 | 10220 ft | 397 kts | 313° |
| 2026-05-04 13:05 | 48.97745 | 2.79569 | 9958 ft | 395 kts | 314° |
| 2026-05-04 13:05 | 48.99656 | 2.76584 | 9644 ft | 392 kts | 314° |
| 2026-05-04 13:05 | 49.01564 | 2.73616 | 9326 ft | 390 kts | 314° |
| 2026-05-04 13:05 | 49.03457 | 2.70659 | 9010 ft | 389 kts | 314° |
| 2026-05-04 13:06 | 49.05327 | 2.67714 | 8705 ft | 381 kts | 314° |
| 2026-05-04 13:06 | 49.07119 | 2.64869 | 8406 ft | 371 kts | 314° |
| 2026-05-04 13:06 | 49.08868 | 2.62060 | 8078 ft | 359 kts | 312° |
| 2026-05-04 13:06 | 49.10189 | 2.58931 | 7773 ft | 346 kts | 293° |
| 2026-05-04 13:07 | 49.10733 | 2.55441 | 7575 ft | 333 kts | 273° |
| 2026-05-04 13:07 | 49.10704 | 2.51959 | 7398 ft | 322 kts | 268° |
| 2026-05-04 13:07 | 49.10637 | 2.48596 | 7219 ft | 311 kts | 269° |
| 2026-05-04 13:07 | 49.10575 | 2.45365 | 7043 ft | 298 kts | 269° |
| 2026-05-04 13:08 | 49.10519 | 2.42297 | 6866 ft | 287 kts | 269° |
| 2026-05-04 13:08 | 49.10464 | 2.39290 | 6701 ft | 281 kts | 269° |
| 2026-05-04 13:08 | 49.10412 | 2.36318 | 6541 ft | 279 kts | 269° |
| 2026-05-04 13:08 | 49.10359 | 2.33374 | 6368 ft | 277 kts | 269° |
| 2026-05-04 13:09 | 49.10304 | 2.30434 | 6095 ft | 277 kts | 269° |
| 2026-05-04 13:09 | 49.10248 | 2.27496 | 5842 ft | 278 kts | 268° |
| 2026-05-04 13:09 | 49.10191 | 2.24529 | 5578 ft | 282 kts | 270° |
| 2026-05-04 13:09 | 49.10134 | 2.21508 | 5283 ft | 288 kts | 268° |
| 2026-05-04 13:10 | 49.10062 | 2.18395 | 4901 ft | 299 kts | 268° |
| 2026-05-04 13:10 | 49.09985 | 2.15231 | 4522 ft | 306 kts | 269° |
| 2026-05-04 13:10 | 49.09913 | 2.11930 | 4116 ft | 315 kts | 269° |
| 2026-05-04 13:10 | 49.09606 | 2.08722 | 3955 ft | 294 kts | 250° |
| 2026-05-04 13:11 | 49.08639 | 2.06172 | 3971 ft | 264 kts | 227° |
| 2026-05-04 13:11 | 49.07281 | 2.04501 | 3974 ft | 240 kts | 207° |
| 2026-05-04 13:11 | 49.05767 | 2.03692 | 3971 ft | 223 kts | 187° |
| 2026-05-04 13:11 | 49.04276 | 2.03639 | 3977 ft | 208 kts | 170° |
| 2026-05-04 13:12 | 49.02931 | 2.04194 | 3971 ft | 200 kts | 154° |
| 2026-05-04 13:12 | 49.01746 | 2.05291 | 3986 ft | 199 kts | 137° |
| 2026-05-04 13:12 | 49.00811 | 2.06830 | 3968 ft | 198 kts | 123° |
| 2026-05-04 13:12 | 49.00184 | 2.08693 | 3991 ft | 200 kts | 108° |
| 2026-05-04 13:13 | 48.99919 | 2.10771 | 3980 ft | 201 kts | 92° |
| 2026-05-04 13:13 | 48.99932 | 2.12849 | 3991 ft | 194 kts | 86° |
| 2026-05-04 13:13 | 49.00024 | 2.14887 | 3968 ft | 190 kts | 86° |
| 2026-05-04 13:13 | 49.00133 | 2.16856 | 3964 ft | 183 kts | 85° |
| 2026-05-04 13:14 | 49.00243 | 2.18774 | 3969 ft | 183 kts | 85° |
| 2026-05-04 13:14 | 49.00353 | 2.20705 | 3964 ft | 183 kts | 85° |
| 2026-05-04 13:14 | 49.00462 | 2.22637 | 3962 ft | 185 kts | 85° |
| 2026-05-04 13:14 | 49.00572 | 2.24577 | 3807 ft | 184 kts | 85° |
| 2026-05-04 13:15 | 49.00682 | 2.26499 | 3587 ft | 184 kts | 85° |
| 2026-05-04 13:15 | 49.00793 | 2.28464 | 3350 ft | 183 kts | 85° |
| 2026-05-04 13:15 | 49.00901 | 2.30369 | 3111 ft | 182 kts | 85° |
| 2026-05-04 13:15 | 49.01009 | 2.32286 | 2865 ft | 181 kts | 85° |
| 2026-05-04 13:16 | 49.01116 | 2.34199 | 2621 ft | 181 kts | 85° |
| 2026-05-04 13:16 | 49.01222 | 2.36103 | 2379 ft | 180 kts | 85° |
| 2026-05-04 13:16 | 49.01328 | 2.37998 | 2135 ft | 177 kts | 85° |
| 2026-05-04 13:16 | 49.01428 | 2.39810 | 1896 ft | 166 kts | 85° |
| 2026-05-04 13:17 | 49.01524 | 2.41542 | 1688 ft | 162 kts | 85° |
| 2026-05-04 13:17 | 49.01618 | 2.43243 | 1466 ft | 161 kts | 85° |
| 2026-05-04 13:17 | 49.01711 | 2.44937 | 1249 ft | 160 kts | 86° |
| 2026-05-04 13:17 | 49.01802 | 2.46578 | 1054 ft | 153 kts | 85° |
| 2026-05-04 13:18 | 49.01890 | 2.48157 | 831 ft | 146 kts | 85° |
| 2026-05-04 13:18 | 49.01969 | 2.49633 | 640 ft | 139 kts | 86° |
| 2026-05-04 13:18 | 49.02052 | 2.51078 | 453 ft | 138 kts | 84° |
| 2026-05-04 13:18 | 49.02123 | 2.52452 | 357 ft | 116 kts | 85° |
| 2026-05-04 13:19 | 49.02171 | 2.53342 | 354 ft | 51 kts | 85° |
| 2026-05-04 13:19 | 49.02196 | 2.53794 | 353 ft | 34 kts | 85° |
| 2026-05-04 13:19 | 49.02176 | 2.54112 | 363 ft | 28 kts | 107° |
| 2026-05-04 13:19 | 49.02122 | 2.54389 | 354 ft | 26 kts | 105° |
| 2026-05-04 13:20 | 49.02075 | 2.54652 | 360 ft | 25 kts | 105° |
| 2026-05-04 13:20 | 49.02035 | 2.54889 | 354 ft | 22 kts | 100° |
| 2026-05-04 13:20 | 49.01987 | 2.55062 | 357 ft | 17 kts | 147° |
| 2026-05-04 13:20 | 49.01881 | 2.55054 | 356 ft | 16 kts | 219° |
| 2026-05-04 13:21 | 49.01850 | 2.54901 | 354 ft | 15 kts | 265° |
| 2026-05-04 13:21 | 49.01843 | 2.54764 | 354 ft | 11 kts | 265° |
| 2026-05-04 13:21 | 49.01836 | 2.54637 | 354 ft | 17 kts | 265° |
| 2026-05-04 13:21 | 49.01826 | 2.54446 | 354 ft | 18 kts | 265° |
| 2026-05-04 13:22 | 49.01816 | 2.54253 | 360 ft | 18 kts | 265° |
| 2026-05-04 13:22 | 49.01803 | 2.54068 | 359 ft | 16 kts | 251° |
| 2026-05-04 13:22 | 49.01756 | 2.53993 | 354 ft | 7 kts | 213° |
| 2026-05-04 13:22 | 49.01727 | 2.53965 | 357 ft | 3 kts | 209° |
| 2026-05-04 13:23 | 49.01715 | 2.53959 | 358 ft | 2 kts | 192° |
| 2026-05-04 13:23 | 49.01698 | 2.53964 | 354 ft | 4 kts | 163° |
| 2026-05-04 13:23 | 49.01685 | 2.53970 | 361 ft | 0 kts | 162° |